Terminal Aerodrome Forecast
Issued by NWS Charleston, SC

Home | Current Version | Previous Version | Text Only | Print | Product List | Glossary On
Versions: 1 2 3 4 5 6 7 8 9 10 11 12 13 14 15 16 17 18 19 20 21 22 23
000
FTUS42 KCHS 180650 AAA
TAFSAV
TAF AMD
KSAV 180650Z 1807/1906 VRB03KT 6SM -RA BR SCT003 OVC015
      TEMPO 1807/1809 2SM RA BR BKN004 OVC010
     FM181000 VRB03KT 4SM BR VCSH BKN004 OVC012
     FM181300 VRB05KT P6SM BKN025 BKN090
     FM181600 16006KT P6SM BKN040=

USA.gov is the U.S. government's official web portal to all federal, state and local government web resources and services.